CheckWX is a tool to help pilots better visualize weather data.  It is not intended as a substitute for an official pre-flight weather briefing.

07:16:14 UTC

PAOT TAF
Ralph Wien Memorial Airport
Kotzebue, Alaska, USA
PAOT 111140Z 1112/1212 04009KT P6SM SKC FM112000 30008KT P6SM FEW008

Jul-11@
12:00 UTC

Jul-11 @ 12:00 UTC

Jul-11@
20:00 UTC

Jul-11 @ 20:00 UTC

TAF PAOT 111140Z 1112/1212 04009KT P6SM SKC

Expired

Wind
  • 040° at 9 KTS
Cloud Levels
  • Clear skies

Jul-11@
20:00 UTC

Jul-11 @ 20:00 UTC

Jul-12@
12:00 UTC

Jul-12 @ 12:00 UTC

FM112000 30008KT P6SM FEW008

From

From Standard forecast or significant change

Wind
  • 300° at 8 KTS
Cloud Levels
  • Few at 800' AGL